createdAt,value
2019-06-20T00:01:49.189Z,19.01
2019-06-20T00:04:17.709Z,18.99
2019-06-20T00:06:46.007Z,18.95
2019-06-20T00:09:14.303Z,18.93
2019-06-20T00:11:42.639Z,18.94
2019-06-20T00:14:11.016Z,18.95
2019-06-20T00:16:39.546Z,18.94
2019-06-20T00:19:07.885Z,18.94
2019-06-20T00:21:36.177Z,18.92
2019-06-20T00:24:06.117Z,18.92
2019-06-20T00:26:34.440Z,18.91
2019-06-20T00:29:02.791Z,18.91
2019-06-20T00:31:31.148Z,18.92
2019-06-20T00:33:59.430Z,18.93
2019-06-20T00:36:27.830Z,18.94
2019-06-20T00:38:56.249Z,18.93
2019-06-20T00:41:24.596Z,18.94
2019-06-20T00:43:52.982Z,18.92
2019-06-20T00:46:21.293Z,18.91
2019-06-20T00:48:49.582Z,18.88
2019-06-20T00:51:17.944Z,18.86
2019-06-20T00:53:46.250Z,18.86
2019-06-20T00:56:14.538Z,18.86
2019-06-20T00:58:42.863Z,18.88
2019-06-20T01:01:11.284Z,18.87
2019-06-20T01:03:39.617Z,18.86
2019-06-20T01:06:07.922Z,18.85
2019-06-20T01:08:36.239Z,18.83
2019-06-20T01:11:04.545Z,18.79
2019-06-20T01:13:34.262Z,18.76
2019-06-20T01:16:02.916Z,18.73
2019-06-20T01:18:31.239Z,18.66
2019-06-20T01:20:59.580Z,18.62
2019-06-20T01:23:27.879Z,18.60
2019-06-20T01:25:56.226Z,18.59
2019-06-20T01:28:24.579Z,18.57
2019-06-20T01:30:52.889Z,18.53
2019-06-20T01:33:21.184Z,18.48
2019-06-20T01:35:49.521Z,18.49
2019-06-20T01:38:17.816Z,18.49
2019-06-20T01:40:46.114Z,18.50
2019-06-20T01:43:14.607Z,18.47
2019-06-20T01:45:42.916Z,18.44
2019-06-20T01:48:12.408Z,18.45
2019-06-20T01:50:40.751Z,18.45
2019-06-20T01:53:09.100Z,18.47
2019-06-20T01:55:37.395Z,18.49
2019-06-20T01:58:05.778Z,18.50
2019-06-20T02:00:49.644Z,18.51
2019-06-20T02:03:18.199Z,18.53
2019-06-20T02:05:46.625Z,18.53
2019-06-20T02:08:15.057Z,18.52
2019-06-20T02:10:43.362Z,18.52
2019-06-20T02:13:11.696Z,18.52
2019-06-20T02:15:40.030Z,18.49
2019-06-20T02:18:08.324Z,18.47
2019-06-20T02:20:38.661Z,18.49
2019-06-20T02:23:06.980Z,18.45
2019-06-20T02:25:35.350Z,18.43
2019-06-20T02:28:04.029Z,18.41
2019-06-20T02:30:32.411Z,18.40
2019-06-20T02:33:00.830Z,18.40
2019-06-20T02:35:29.172Z,18.38
2019-06-20T02:37:57.468Z,18.37
2019-06-20T02:40:25.790Z,18.34
2019-06-20T02:42:54.245Z,18.33
2019-06-20T02:45:22.721Z,18.28
2019-06-20T02:47:51.059Z,18.28
2019-06-20T02:50:19.973Z,18.27
2019-06-20T02:52:48.337Z,18.29
2019-06-20T02:55:16.679Z,18.27
2019-06-20T02:57:45.031Z,18.24
2019-06-20T03:00:13.364Z,18.24
2019-06-20T03:02:41.688Z,18.25
2019-06-20T03:05:11.055Z,18.23
2019-06-20T03:07:39.567Z,18.21
2019-06-20T03:10:07.865Z,18.20
2019-06-20T03:12:36.309Z,18.19
2019-06-20T03:15:05.747Z,18.19
2019-06-20T03:17:34.106Z,18.20
2019-06-20T03:20:02.497Z,18.18
2019-06-20T03:22:30.786Z,18.17
2019-06-20T03:24:59.104Z,18.15
2019-06-20T03:27:27.460Z,18.15
2019-06-20T03:29:55.849Z,18.17
2019-06-20T03:32:24.239Z,18.15
2019-06-20T03:34:52.654Z,18.12
2019-06-20T03:37:21.000Z,18.11
2019-06-20T03:39:49.299Z,18.09
2019-06-20T03:42:17.614Z,18.08
2019-06-20T03:45:01.231Z,18.05
2019-06-20T03:47:15.974Z,17.93
2019-06-20T03:49:44.327Z,17.94
2019-06-20T03:52:12.733Z,17.92
2019-06-20T03:54:41.082Z,17.91
2019-06-20T03:57:09.457Z,17.87
2019-06-20T03:59:38.518Z,17.81
2019-06-20T04:02:06.849Z,17.78
2019-06-20T04:04:35.161Z,17.75
2019-06-20T04:07:03.512Z,17.71
2019-06-20T04:09:31.906Z,17.62
2019-06-20T04:12:00.209Z,17.62
2019-06-20T04:14:28.539Z,17.62
2019-06-20T04:16:56.907Z,17.58
2019-06-20T04:19:25.990Z,17.60
2019-06-20T04:21:54.280Z,17.58
2019-06-20T04:24:22.600Z,17.56
2019-06-20T04:26:51.039Z,17.50
2019-06-20T04:29:19.424Z,17.53
2019-06-20T04:31:48.117Z,17.52
2019-06-20T04:34:16.473Z,17.53
2019-06-20T04:36:47.979Z,17.51
2019-06-20T04:39:19.131Z,17.49
2019-06-20T04:41:46.015Z,17.50
2019-06-20T04:44:14.318Z,17.48
2019-06-20T04:46:47.072Z,17.49
2019-06-20T04:49:15.496Z,17.48
2019-06-20T04:51:43.829Z,17.45
2019-06-20T04:54:12.159Z,17.47
2019-06-20T04:56:40.591Z,17.48
2019-06-20T04:59:08.964Z,17.47
2019-06-20T05:01:37.260Z,17.46
2019-06-20T05:04:05.595Z,17.49
2019-06-20T05:06:33.911Z,17.53
2019-06-20T05:09:02.261Z,17.58
2019-06-20T05:11:30.668Z,17.57
2019-06-20T05:13:58.981Z,17.58
2019-06-20T05:16:27.311Z,17.55
2019-06-20T05:18:55.797Z,17.60
2019-06-20T05:21:24.120Z,17.65
2019-06-20T05:23:52.446Z,17.66
2019-06-20T05:26:20.965Z,17.70
2019-06-20T05:28:49.759Z,17.70
2019-06-20T05:31:18.105Z,17.73
2019-06-20T05:33:46.658Z,17.74
2019-06-20T05:36:14.954Z,17.71
2019-06-20T05:38:43.345Z,17.76
2019-06-20T05:41:11.762Z,17.75
2019-06-20T05:43:40.108Z,17.79
2019-06-20T05:46:11.069Z,17.79
2019-06-20T05:48:38.592Z,17.84
2019-06-20T05:51:06.978Z,17.88
2019-06-20T05:53:35.330Z,17.92
2019-06-20T05:56:03.641Z,17.95
2019-06-20T05:58:31.931Z,18.00
2019-06-20T06:01:00.262Z,18.04
2019-06-20T06:03:28.545Z,18.07
2019-06-20T06:05:57.003Z,18.09
2019-06-20T06:08:25.276Z,18.13
2019-06-20T06:10:53.565Z,18.17
2019-06-20T06:13:21.889Z,18.15
2019-06-20T06:15:50.303Z,18.16
2019-06-20T06:18:18.779Z,18.12
2019-06-20T06:20:47.122Z,18.14
2019-06-20T06:23:15.422Z,18.15
2019-06-20T06:25:43.897Z,18.14
2019-06-20T06:28:12.767Z,18.16
2019-06-20T06:30:41.222Z,18.20
2019-06-20T06:33:09.658Z,18.27
2019-06-20T06:35:37.959Z,18.33
2019-06-20T06:38:06.280Z,18.40
2019-06-20T06:40:34.703Z,18.46
2019-06-20T06:43:03.047Z,18.48
2019-06-20T06:45:31.487Z,18.53
2019-06-20T06:47:59.782Z,18.52
2019-06-20T06:50:28.736Z,18.56
2019-06-20T06:52:57.098Z,18.58
2019-06-20T06:55:27.654Z,18.59
2019-06-20T06:57:55.687Z,18.66
2019-06-20T07:00:23.995Z,18.71
2019-06-20T07:02:52.293Z,18.74
2019-06-20T07:05:20.719Z,18.82
2019-06-20T07:07:49.022Z,18.85
2019-06-20T07:10:17.311Z,18.86
2019-06-20T07:12:45.648Z,18.89
2019-06-20T07:15:14.160Z,18.95
2019-06-20T07:17:42.449Z,18.95
2019-06-20T07:20:10.766Z,19.00
2019-06-20T07:22:39.144Z,19.03
2019-06-20T07:25:07.468Z,19.03
2019-06-20T07:27:35.820Z,19.02
2019-06-20T07:30:06.709Z,18.97
2019-06-20T07:32:35.000Z,18.97
2019-06-20T07:35:04.627Z,18.99
2019-06-20T07:37:33.168Z,18.98
2019-06-20T07:40:01.490Z,19.01
2019-06-20T07:42:30.548Z,19.04
2019-06-20T07:44:58.873Z,19.01
2019-06-20T07:47:27.206Z,18.99
2019-06-20T07:49:55.605Z,18.93
2019-06-20T07:52:23.891Z,18.95
2019-06-20T07:54:52.325Z,18.99
2019-06-20T07:57:20.610Z,19.01
2019-06-20T07:59:48.998Z,19.03
2019-06-20T08:02:17.419Z,19.06
2019-06-20T08:04:45.824Z,19.07
2019-06-20T08:07:14.115Z,19.07
2019-06-20T08:09:45.153Z,19.06
2019-06-20T08:12:12.631Z,19.10
2019-06-20T08:14:40.958Z,19.11
2019-06-20T08:17:09.271Z,19.15
2019-06-20T08:19:37.555Z,19.26
2019-06-20T08:22:05.889Z,19.31
2019-06-20T08:24:34.181Z,19.42
2019-06-20T08:27:03.248Z,19.53
2019-06-20T08:29:32.625Z,19.66
2019-06-20T08:32:02.688Z,19.73
2019-06-20T08:34:31.053Z,19.83
2019-06-20T08:37:00.550Z,19.87
2019-06-20T08:39:29.575Z,19.90
2019-06-20T08:41:59.209Z,19.92
2019-06-20T08:44:29.013Z,19.90
2019-06-20T08:46:59.247Z,19.87
2019-06-20T08:49:27.606Z,19.85
2019-06-20T08:51:57.274Z,19.80
2019-06-20T08:54:25.971Z,19.74
2019-06-20T08:56:57.354Z,19.67
2019-06-20T08:59:26.136Z,19.63
2019-06-20T09:01:56.605Z,19.66
2019-06-20T09:04:24.587Z,19.71
2019-06-20T09:06:55.168Z,19.73
2019-06-20T09:09:22.929Z,19.79
2019-06-20T09:11:51.234Z,19.83
2019-06-20T09:14:19.593Z,19.84
2019-06-20T09:16:47.954Z,19.89
2019-06-20T09:19:16.288Z,19.93
2019-06-20T09:21:44.579Z,19.97
2019-06-20T09:24:12.871Z,20.03
2019-06-20T09:26:41.999Z,20.12
2019-06-20T09:29:10.341Z,20.21
2019-06-20T09:31:38.643Z,20.32
2019-06-20T09:34:06.944Z,20.46
2019-06-20T09:36:35.378Z,20.62
2019-06-20T09:39:03.872Z,20.70
2019-06-20T09:41:32.158Z,20.74
2019-06-20T09:44:00.645Z,20.82
2019-06-20T09:46:29.090Z,20.94
2019-06-20T09:48:58.722Z,21.12
2019-06-20T09:51:27.082Z,21.39
2019-06-20T09:53:56.362Z,21.63
2019-06-20T09:56:24.691Z,21.83
2019-06-20T09:58:53.182Z,22.06
2019-06-20T10:01:21.486Z,22.27
2019-06-20T10:03:50.532Z,22.52
2019-06-20T10:06:18.946Z,22.70
2019-06-20T10:08:48.316Z,22.89
2019-06-20T10:11:16.801Z,22.98
2019-06-20T10:13:46.866Z,23.05
2019-06-20T10:16:16.229Z,23.08
2019-06-20T10:18:46.750Z,23.14
2019-06-20T10:21:14.610Z,23.17
2019-06-20T10:23:42.907Z,23.19
2019-06-20T10:26:11.765Z,23.18
2019-06-20T10:28:40.091Z,23.06
2019-06-20T10:31:08.563Z,23.09
2019-06-20T10:33:36.850Z,23.14
2019-06-20T10:36:05.369Z,23.09
2019-06-20T10:38:33.679Z,23.01
2019-06-20T10:41:01.992Z,22.90
2019-06-20T10:43:30.386Z,22.81
2019-06-20T10:45:58.703Z,22.69
2019-06-20T10:48:27.132Z,22.63
2019-06-20T10:50:57.445Z,22.59
2019-06-20T10:53:25.747Z,22.67
2019-06-20T10:55:54.148Z,22.73
2019-06-20T10:58:22.433Z,22.70
2019-06-20T11:00:51.212Z,22.65
2019-06-20T11:03:19.868Z,22.68
2019-06-20T11:05:48.266Z,22.63
2019-06-20T11:08:16.966Z,22.54
2019-06-20T11:10:47.660Z,22.40
2019-06-20T11:13:16.028Z,22.23
2019-06-20T11:15:44.356Z,22.24
2019-06-20T11:18:13.004Z,22.15
2019-06-20T11:20:42.676Z,22.14
2019-06-20T11:23:11.324Z,22.06
2019-06-20T11:25:40.333Z,21.94
2019-06-20T11:28:09.715Z,21.88
2019-06-20T11:30:52.624Z,21.81
2019-06-20T11:33:08.113Z,21.87
2019-06-20T11:35:37.742Z,22.28
2019-06-20T11:38:06.320Z,22.69
2019-06-20T11:40:35.378Z,23.12
2019-06-20T11:43:04.638Z,23.50
2019-06-20T11:45:35.413Z,23.87
2019-06-20T11:48:03.040Z,24.18
2019-06-20T11:50:31.376Z,24.28
2019-06-20T11:52:59.778Z,24.25
2019-06-20T11:55:28.138Z,24.06
2019-06-20T11:57:56.451Z,24.20
2019-06-20T12:00:24.936Z,24.26
2019-06-20T12:02:53.285Z,24.38
2019-06-20T12:05:21.598Z,24.56
2019-06-20T12:07:50.236Z,24.91
2019-06-20T12:10:20.401Z,25.17
2019-06-20T12:12:49.143Z,25.18
2019-06-20T12:15:17.883Z,25.22
2019-06-20T12:17:47.220Z,25.29
2019-06-20T12:20:15.926Z,25.37
2019-06-20T12:22:45.060Z,25.41
2019-06-20T12:25:15.348Z,25.55
2019-06-20T12:27:45.471Z,25.75
2019-06-20T12:30:17.528Z,25.79
2019-06-20T12:32:46.846Z,26.00
2019-06-20T12:35:15.823Z,25.97
2019-06-20T12:37:45.203Z,26.14
2019-06-20T12:40:13.787Z,26.28
2019-06-20T12:42:43.239Z,25.94
2019-06-20T12:45:12.258Z,25.95
2019-06-20T12:47:41.818Z,26.07
2019-06-20T12:50:10.463Z,26.05
2019-06-20T12:52:39.527Z,26.11
2019-06-20T12:55:09.260Z,26.21
2019-06-20T12:57:39.158Z,26.33
2019-06-20T13:00:08.723Z,26.18
2019-06-20T13:02:38.613Z,26.45
2019-06-20T13:05:08.192Z,26.69
2019-06-20T13:07:38.610Z,26.73
2019-06-20T13:10:09.603Z,26.54
2019-06-20T13:12:37.922Z,26.40
2019-06-20T13:15:06.272Z,26.37
2019-06-20T13:17:34.589Z,26.53
2019-06-20T13:20:03.325Z,26.81
2019-06-20T13:22:31.630Z,26.67
2019-06-20T13:25:00.004Z,26.86
2019-06-20T13:27:28.412Z,26.96
2019-06-20T13:29:56.876Z,26.98
2019-06-20T13:32:25.453Z,27.08
2019-06-20T13:34:53.816Z,27.13
2019-06-20T13:37:22.124Z,27.15
2019-06-20T13:39:50.778Z,27.28
2019-06-20T13:42:19.159Z,27.32
2019-06-20T13:44:47.639Z,27.26
2019-06-20T13:47:16.059Z,27.41
2019-06-20T13:49:45.563Z,27.42
2019-06-20T13:52:14.155Z,27.15
2019-06-20T13:54:44.638Z,26.96
2019-06-20T13:57:13.361Z,26.91
2019-06-20T13:59:41.807Z,27.00
2019-06-20T14:02:10.363Z,27.08
2019-06-20T14:04:41.040Z,27.28
2019-06-20T14:07:08.706Z,27.49
2019-06-20T14:09:36.989Z,27.61
2019-06-20T14:12:05.381Z,27.40
2019-06-20T14:14:33.824Z,27.17
2019-06-20T14:17:02.303Z,27.37
2019-06-20T14:19:30.711Z,27.41
2019-06-20T14:21:59.061Z,27.64
2019-06-20T14:24:27.551Z,27.54
2019-06-20T14:26:58.395Z,27.41
2019-06-20T14:29:26.721Z,26.96
2019-06-20T14:31:55.105Z,26.94
2019-06-20T14:34:23.465Z,26.76
2019-06-20T14:36:52.287Z,26.64
2019-06-20T14:39:21.808Z,26.89
2019-06-20T14:41:51.879Z,26.92
2019-06-20T14:44:20.209Z,26.98
2019-06-20T14:46:48.516Z,27.10
2019-06-20T14:49:16.852Z,27.01
2019-06-20T14:51:46.734Z,27.04
2019-06-20T14:54:15.311Z,26.96
2019-06-20T14:56:44.646Z,26.77
2019-06-20T14:59:13.732Z,26.66
2019-06-20T15:01:42.032Z,26.64
2019-06-20T15:04:10.314Z,26.63
2019-06-20T15:06:38.732Z,26.62
2019-06-20T15:09:08.073Z,26.45
2019-06-20T15:11:36.529Z,26.19
2019-06-20T15:14:04.925Z,26.04
2019-06-20T15:16:33.229Z,25.91
2019-06-20T15:19:01.515Z,25.70
2019-06-20T15:21:29.832Z,25.39
2019-06-20T15:23:58.230Z,25.40
2019-06-20T15:26:26.678Z,25.22
2019-06-20T15:28:55.575Z,25.13
2019-06-20T15:31:24.968Z,24.95
2019-06-20T15:33:53.782Z,24.72
2019-06-20T15:36:23.447Z,24.58
2019-06-20T15:38:53.005Z,24.64
2019-06-20T15:41:21.406Z,24.75
2019-06-20T15:43:49.899Z,24.59
2019-06-20T15:46:18.317Z,24.44
2019-06-20T15:48:46.784Z,24.57
2019-06-20T15:51:15.096Z,24.59
2019-06-20T15:53:43.396Z,24.49
2019-06-20T15:56:11.892Z,24.48
2019-06-20T15:58:41.829Z,24.29
2019-06-20T16:01:10.119Z,24.29
2019-06-20T16:03:38.418Z,24.43
2019-06-20T16:06:06.816Z,24.71
2019-06-20T16:08:35.352Z,24.87
2019-06-20T16:11:03.704Z,24.62
2019-06-20T16:13:32.080Z,24.72
2019-06-20T16:16:03.193Z,24.82
2019-06-20T16:18:31.663Z,24.89
2019-06-20T16:20:59.952Z,24.91
2019-06-20T16:23:28.227Z,24.84
2019-06-20T16:25:56.714Z,24.68
2019-06-20T16:28:25.052Z,24.74
2019-06-20T16:31:07.921Z,24.59
2019-06-20T16:33:25.481Z,24.58
2019-06-20T16:35:53.697Z,24.48
2019-06-20T16:38:22.183Z,24.18
2019-06-20T16:40:50.539Z,23.99
2019-06-20T16:43:18.853Z,24.06
2019-06-20T16:45:47.160Z,24.08
2019-06-20T16:48:15.501Z,23.95
2019-06-20T16:50:43.923Z,23.76
2019-06-20T16:53:12.299Z,23.57
2019-06-20T16:55:43.735Z,23.30
2019-06-20T16:58:12.176Z,23.07
2019-06-20T17:00:40.711Z,22.98
2019-06-20T17:03:09.069Z,22.86
2019-06-20T17:05:39.150Z,22.59
2019-06-20T17:08:07.495Z,22.39
2019-06-20T17:10:35.785Z,22.45
2019-06-20T17:13:04.380Z,22.24
2019-06-20T17:15:32.925Z,21.90
2019-06-20T17:18:04.079Z,21.83
2019-06-20T17:20:32.622Z,21.73
2019-06-20T17:23:01.069Z,21.78
2019-06-20T17:25:29.418Z,21.76
2019-06-20T17:27:57.868Z,21.77
2019-06-20T17:30:27.881Z,21.69
2019-06-20T17:32:56.274Z,21.33
2019-06-20T17:35:24.582Z,21.39
2019-06-20T17:37:52.946Z,21.36
2019-06-20T17:40:21.268Z,21.38
2019-06-20T17:42:49.646Z,21.42
2019-06-20T17:45:18.082Z,21.56
2019-06-20T17:47:46.454Z,21.58
2019-06-20T17:50:14.848Z,21.55
2019-06-20T17:52:43.126Z,21.51
2019-06-20T17:55:11.606Z,21.55
2019-06-20T17:57:39.943Z,21.57
2019-06-20T18:00:10.731Z,21.48
2019-06-20T18:02:39.741Z,21.54
2019-06-20T18:05:08.422Z,21.49
2019-06-20T18:07:36.760Z,21.42
2019-06-20T18:10:08.382Z,21.20
2019-06-20T18:12:36.656Z,21.07
2019-06-20T18:15:07.068Z,20.93
2019-06-20T18:17:35.368Z,21.00
2019-06-20T18:20:06.026Z,21.01
2019-06-20T18:22:34.445Z,21.10
2019-06-20T18:25:02.734Z,21.13
2019-06-20T18:27:31.285Z,21.11
2019-06-20T18:29:59.814Z,21.07
2019-06-20T18:32:29.711Z,21.05
2019-06-20T18:35:02.495Z,20.97
2019-06-20T18:37:32.074Z,20.90
2019-06-20T18:40:00.477Z,20.86
2019-06-20T18:42:28.924Z,20.94
2019-06-20T18:44:57.340Z,20.99
2019-06-20T18:47:25.617Z,21.03
2019-06-20T18:49:54.069Z,21.01
2019-06-20T18:52:22.439Z,20.96
2019-06-20T18:54:51.461Z,20.97
2019-06-20T18:57:19.802Z,20.85
2019-06-20T18:59:48.079Z,20.87
2019-06-20T19:02:16.504Z,20.82
2019-06-20T19:04:50.716Z,20.79
2019-06-20T19:07:17.335Z,20.81
2019-06-20T19:09:45.722Z,20.89
2019-06-20T19:12:14.235Z,20.83
2019-06-20T19:14:42.567Z,20.77
2019-06-20T19:17:14.546Z,20.71
2019-06-20T19:19:41.083Z,20.67
2019-06-20T19:22:09.475Z,20.64
2019-06-20T19:24:37.759Z,20.62
2019-06-20T19:27:09.097Z,20.62
2019-06-20T19:29:37.688Z,20.57
2019-06-20T19:32:07.774Z,20.55
2019-06-20T19:34:36.634Z,20.44
2019-06-20T19:37:05.111Z,20.39
2019-06-20T19:39:33.415Z,20.28
2019-06-20T19:42:01.736Z,20.20
2019-06-20T19:44:30.187Z,20.12
2019-06-20T19:46:58.617Z,20.08
2019-06-20T19:49:27.141Z,20.02
2019-06-20T19:51:56.003Z,19.97
2019-06-20T19:54:24.356Z,19.93
2019-06-20T19:56:52.778Z,19.91
2019-06-20T19:59:21.165Z,19.93
2019-06-20T20:01:49.712Z,19.94
2019-06-20T20:04:18.024Z,19.96
2019-06-20T20:06:46.345Z,19.99
2019-06-20T20:09:14.642Z,20.03
2019-06-20T20:11:42.958Z,20.07
2019-06-20T20:14:11.230Z,20.10
2019-06-20T20:16:40.226Z,20.10
2019-06-20T20:19:08.566Z,20.09
2019-06-20T20:21:36.878Z,20.05
2019-06-20T20:24:05.173Z,20.00
2019-06-20T20:26:33.620Z,19.95
2019-06-20T20:29:02.023Z,19.88
2019-06-20T20:31:30.504Z,19.85
2019-06-20T20:33:59.629Z,19.78
2019-06-20T20:36:27.909Z,19.71
2019-06-20T20:38:56.296Z,19.59
2019-06-20T20:41:24.597Z,19.51
2019-06-20T20:43:52.903Z,19.45
2019-06-20T20:46:21.275Z,19.45
2019-06-20T20:48:49.699Z,19.42
2019-06-20T20:51:17.981Z,19.38
2019-06-20T20:53:46.316Z,19.36
2019-06-20T20:56:14.819Z,19.35
2019-06-20T20:58:43.085Z,19.34
2019-06-20T21:01:31.133Z,19.29
2019-06-20T21:04:00.422Z,19.27
2019-06-20T21:06:29.348Z,19.23
2019-06-20T21:08:57.722Z,19.20
2019-06-20T21:11:26.072Z,19.21
2019-06-20T21:13:54.970Z,19.18
2019-06-20T21:16:23.269Z,19.16
2019-06-20T21:18:51.799Z,19.13
2019-06-20T21:21:20.090Z,19.10
2019-06-20T21:23:48.448Z,19.06
2019-06-20T21:26:16.774Z,19.03
2019-06-20T21:28:45.062Z,18.99
2019-06-20T21:31:13.649Z,18.97
2019-06-20T21:33:41.985Z,18.93
2019-06-20T21:36:10.387Z,18.89
2019-06-20T21:38:38.791Z,18.85
2019-06-20T21:41:07.119Z,18.81
2019-06-20T21:43:35.459Z,18.80
2019-06-20T21:46:06.644Z,18.79
2019-06-20T21:48:33.817Z,18.76
2019-06-20T21:51:02.204Z,18.70
2019-06-20T21:53:30.483Z,18.68
2019-06-20T21:55:59.418Z,18.68
2019-06-20T21:58:28.031Z,18.66
2019-06-20T22:00:57.158Z,18.64
2019-06-20T22:03:25.470Z,18.60
2019-06-20T22:05:53.818Z,18.56
2019-06-20T22:08:22.160Z,18.54
2019-06-20T22:10:50.574Z,18.51
2019-06-20T22:13:19.166Z,18.49
2019-06-20T22:15:48.007Z,18.47
2019-06-20T22:18:16.292Z,18.44
2019-06-20T22:20:44.625Z,18.42
2019-06-20T22:23:12.940Z,18.39
2019-06-20T22:25:41.323Z,18.37
2019-06-20T22:28:09.708Z,18.34
2019-06-20T22:30:54.881Z,18.31
2019-06-20T22:33:23.253Z,18.27
2019-06-20T22:35:51.757Z,18.22
2019-06-20T22:38:20.156Z,18.17
2019-06-20T22:40:48.515Z,18.11
2019-06-20T22:43:16.826Z,18.06
2019-06-20T22:45:45.229Z,18.02
2019-06-20T22:48:13.651Z,17.98
2019-06-20T22:50:42.017Z,17.91
2019-06-20T22:53:10.392Z,17.89
2019-06-20T22:55:38.827Z,17.87
2019-06-20T22:58:07.251Z,17.85
2019-06-20T23:00:35.732Z,17.85
2019-06-20T23:03:05.071Z,17.83
2019-06-20T23:05:33.434Z,17.77
2019-06-20T23:08:01.953Z,17.75
2019-06-20T23:10:30.439Z,17.72
2019-06-20T23:12:58.921Z,17.69
2019-06-20T23:15:27.222Z,17.65
2019-06-20T23:17:55.625Z,17.64
2019-06-20T23:20:24.135Z,17.59
2019-06-20T23:22:53.158Z,17.52
2019-06-20T23:25:21.451Z,17.46
2019-06-20T23:27:49.879Z,17.39
2019-06-20T23:30:18.323Z,17.36
2019-06-20T23:32:46.606Z,17.31
2019-06-20T23:35:14.927Z,17.28
2019-06-20T23:37:43.240Z,17.24
2019-06-20T23:40:11.639Z,17.20
2019-06-20T23:42:39.950Z,17.16
2019-06-20T23:45:09.022Z,17.12
2019-06-20T23:47:37.699Z,17.09
2019-06-20T23:50:06.788Z,17.05
2019-06-20T23:52:45.467Z,17.01
2019-06-20T23:55:13.791Z,17.00
2019-06-20T23:57:43.745Z,16.96
